Terminal Aerodrome Forecast
Issued by NWS Tampa Bay Area, FL

Home | Current Version | Previous Version | Text Only | Print | Product List | Glossary On
Versions: 1 2 3 4 5 6 7 8 9 10 11 12 13 14 15 16 17 18 19 20 21 22 23 24 25 26 27 28 29 30 31 32
000
FTUS42 KTBW 070255 AAA
TAFTPA
TAF AMD
KTPA 070255Z 0703/0724 VRB03KT P6SM FEW040 BKN250
     FM070400 VRB03KT P6SM SCT250
     FM071400 VRB04KT P6SM FEW025 SCT250
     FM071600 23006KT P6SM VCTS SCT040CB SCT100 BKN250
     FM072100 28007KT P6SM SCT040 SCT130 BKN250=

USA.gov is the U.S. government's official web portal to all federal, state and local government web resources and services.